CYEG/YEG METAR and TAF weather

Enter ICAO airport designator
Station Type Date Time Source
CYEG METAR 2018/12/12 17:00 UTC NOAA

CYEG 121700Z 25008KT 20SM FEW160 SCT220 M03/M09 A2947 RMK AC1CI4 AC TR SLP017


Station Type Date Time Source
CYEG Decoded METAR 2018/12/12 17:00 UTC NOAA

Edmonton International, Alta., Canada (CYEG) 53-18N 113-35W 723M
Dec 12, 2018 - 12:00 PM EST / 2018.12.12 1700 UTC
Wind: from the WSW (250 degrees) at 9 MPH (8 KT):0
Visibility: 20 mile(s):0
Sky conditions: partly cloudy
Temperature: 26 F (-3 C)
Windchill: 17 F (-8 C):1
Dew Point: 15 F (-9 C)
Relative Humidity: 63%
Pressure (altimeter): 29.47 in. Hg (997 hPa)
ob: CYEG 121700Z 25008KT 20SM FEW160 SCT220 M03/M09 A2947 RMK AC1CI4 AC TR SLP017
cycle: 17

Station Type Date Time Source
CYEG TAF 2018/12/12 15:42 UTC NOAA

TAF TAF CYEG 121439Z 1215/1312 27010KT WS005/29030KT P6SM BKN150
FM121800 26015G25KT P6SM SCT150
FM130100 25010KT P6SM SKC
FM130500 20012KT P6SM SCT080
RMK NXT FCST BY 121800Z


Example: see airport list